sensor_id;sensor_type;location;lat;lon;timestamp;pressure;altitude;pressure_sealevel;temperature;humidity
59435;BME280;45241;49.768;8.636;2023-02-03T00:01:26;101385.03;;;8.73;95.88
59435;BME280;45241;49.768;8.636;2023-02-03T00:03:52;101366.03;;;8.49;97.98
59435;BME280;45241;49.768;8.636;2023-02-03T00:06:17;101363.56;;;8.83;97.30
59435;BME280;45241;49.768;8.636;2023-02-03T00:08:42;101372.44;;;8.66;97.50
59435;BME280;45241;49.768;8.636;2023-02-03T00:11:08;101379.16;;;8.70;97.79
59435;BME280;45241;49.768;8.636;2023-02-03T00:13:34;101386.53;;;8.58;98.62
59435;BME280;45241;49.768;8.636;2023-02-03T00:15:59;101392.56;;;8.78;97.97
59435;BME280;45241;49.768;8.636;2023-02-03T00:18:26;101389.41;;;8.92;96.80
59435;BME280;45241;49.768;8.636;2023-02-03T00:20:51;101393.41;;;8.61;98.86
59435;BME280;45241;49.768;8.636;2023-02-03T00:23:17;101387.06;;;8.62;98.56
59435;BME280;45241;49.768;8.636;2023-02-03T00:25:42;101376.22;;;8.63;98.48
59435;BME280;45241;49.768;8.636;2023-02-03T00:28:08;101354.25;;;8.69;98.24
59435;BME280;45241;49.768;8.636;2023-02-03T00:30:34;101339.00;;;8.52;99.11
59435;BME280;45241;49.768;8.636;2023-02-03T00:33:00;101342.56;;;8.70;98.79
59435;BME280;45241;49.768;8.636;2023-02-03T00:35:26;101332.19;;;8.67;98.89
59435;BME280;45241;49.768;8.636;2023-02-03T00:37:53;101332.91;;;8.77;97.62
59435;BME280;45241;49.768;8.636;2023-02-03T00:40:19;101338.06;;;8.71;98.58
59435;BME280;45241;49.768;8.636;2023-02-03T00:42:45;101333.06;;;8.76;97.81
59435;BME280;45241;49.768;8.636;2023-02-03T00:45:10;101325.16;;;8.66;97.57
59435;BME280;45241;49.768;8.636;2023-02-03T00:47:36;101341.34;;;8.83;97.42
59435;BME280;45241;49.768;8.636;2023-02-03T00:50:01;101347.28;;;8.76;97.25
59435;BME280;45241;49.768;8.636;2023-02-03T00:52:27;101356.53;;;9.00;96.05
59435;BME280;45241;49.768;8.636;2023-02-03T00:54:52;101364.50;;;8.92;96.48
59435;BME280;45241;49.768;8.636;2023-02-03T00:57:18;101366.94;;;8.85;96.99
59435;BME280;45241;49.768;8.636;2023-02-03T00:59:43;101372.91;;;8.79;97.28
59435;BME280;45241;49.768;8.636;2023-02-03T01:02:08;101362.41;;;8.86;96.23
59435;BME280;45241;49.768;8.636;2023-02-03T01:04:33;101356.75;;;8.89;96.82
59435;BME280;45241;49.768;8.636;2023-02-03T01:06:59;101354.47;;;8.94;96.65
59435;BME280;45241;49.768;8.636;2023-02-03T01:09:25;101349.88;;;8.86;97.24
59435;BME280;45241;49.768;8.636;2023-02-03T01:11:50;101339.25;;;8.76;97.85
59435;BME280;45241;49.768;8.636;2023-02-03T01:14:15;101338.50;;;8.84;97.25
59435;BME280;45241;49.768;8.636;2023-02-03T01:16:41;101314.91;;;8.79;97.46
59435;BME280;45241;49.768;8.636;2023-02-03T01:19:06;101315.91;;;8.78;98.05
59435;BME280;45241;49.768;8.636;2023-02-03T01:21:31;101316.44;;;8.82;97.29
59435;BME280;45241;49.768;8.636;2023-02-03T01:23:57;101287.63;;;8.76;97.58
59435;BME280;45241;49.768;8.636;2023-02-03T01:26:23;101286.72;;;8.85;97.50
59435;BME280;45241;49.768;8.636;2023-02-03T01:28:56;101289.22;;;8.87;96.63
59435;BME280;45241;49.768;8.636;2023-02-03T01:31:24;101287.78;;;8.74;97.47
59435;BME280;45241;49.768;8.636;2023-02-03T01:33:51;101293.06;;;8.84;97.80
59435;BME280;45241;49.768;8.636;2023-02-03T01:36:18;101312.91;;;8.99;96.63
59435;BME280;45241;49.768;8.636;2023-02-03T01:38:44;101312.38;;;8.96;96.47
59435;BME280;45241;49.768;8.636;2023-02-03T01:41:14;101295.56;;;8.86;96.60
59435;BME280;45241;49.768;8.636;2023-02-03T01:43:41;101287.72;;;8.84;97.43
59435;BME280;45241;49.768;8.636;2023-02-03T01:46:30;101294.88;;;8.84;97.58
59435;BME280;45241;49.768;8.636;2023-02-03T01:51:31;101296.56;;;8.85;97.76
59435;BME280;45241;49.768;8.636;2023-02-03T01:53:56;101299.56;;;8.82;97.48
59435;BME280;45241;49.768;8.636;2023-02-03T01:56:25;101297.09;;;8.88;97.51
59435;BME280;45241;49.768;8.636;2023-02-03T01:58:52;101286.22;;;8.90;97.27
59435;BME280;45241;49.768;8.636;2023-02-03T02:01:17;101294.72;;;8.85;97.59
59435;BME280;45241;49.768;8.636;2023-02-03T02:03:47;101292.72;;;9.05;96.86
59435;BME280;45241;49.768;8.636;2023-02-03T02:06:14;101287.63;;;8.94;96.94
59435;BME280;45241;49.768;8.636;2023-02-03T02:08:41;101283.50;;;8.82;97.51
59435;BME280;45241;49.768;8.636;2023-02-03T02:11:08;101274.63;;;8.99;96.81
59435;BME280;45241;49.768;8.636;2023-02-03T02:13:34;101276.53;;;8.89;97.72
59435;BME280;45241;49.768;8.636;2023-02-03T02:19:12;101266.47;;;8.83;98.42
59435;BME280;45241;49.768;8.636;2023-02-03T02:27:43;101265.13;;;8.78;99.11
59435;BME280;45241;49.768;8.636;2023-02-03T02:38:15;101264.41;;;8.94;98.33
59435;BME280;45241;49.768;8.636;2023-02-03T02:40:51;101290.81;;;8.97;98.14
59435;BME280;45241;49.768;8.636;2023-02-03T02:43:25;101287.31;;;8.97;98.66
59435;BME280;45241;49.768;8.636;2023-02-03T02:46:05;101293.13;;;8.92;98.73
59435;BME280;45241;49.768;8.636;2023-02-03T02:51:40;101285.91;;;9.11;97.98
59435;BME280;45241;49.768;8.636;2023-02-03T02:54:11;101285.47;;;8.97;98.75
59435;BME280;45241;49.768;8.636;2023-02-03T02:56:39;101281.88;;;8.89;99.77
59435;BME280;45241;49.768;8.636;2023-02-03T02:59:06;101288.63;;;8.93;99.26
59435;BME280;45241;49.768;8.636;2023-02-03T03:01:31;101290.50;;;9.00;98.58
59435;BME280;45241;49.768;8.636;2023-02-03T03:03:59;101298.09;;;8.87;99.40
59435;BME280;45241;49.768;8.636;2023-02-03T03:06:34;101303.28;;;8.89;98.80
59435;BME280;45241;49.768;8.636;2023-02-03T03:09:09;101306.03;;;8.97;97.80
59435;BME280;45241;49.768;8.636;2023-02-03T03:11:41;101312.22;;;8.97;97.86
59435;BME280;45241;49.768;8.636;2023-02-03T03:14:08;101328.97;;;8.82;99.85
59435;BME280;45241;49.768;8.636;2023-02-03T03:16:36;101331.03;;;9.05;98.60
59435;BME280;45241;49.768;8.636;2023-02-03T03:19:23;101324.91;;;8.95;98.99
59435;BME280;45241;49.768;8.636;2023-02-03T03:21:55;101326.75;;;8.95;99.85
59435;BME280;45241;49.768;8.636;2023-02-03T03:24:29;101315.13;;;8.86;100.00
59435;BME280;45241;49.768;8.636;2023-02-03T03:27:01;101311.06;;;9.00;100.00
59435;BME280;45241;49.768;8.636;2023-02-03T03:29:37;101307.88;;;8.96;100.00
59435;BME280;45241;49.768;8.636;2023-02-03T03:32:05;101299.41;;;8.83;100.00
59435;BME280;45241;49.768;8.636;2023-02-03T03:34:31;101309.84;;;8.76;100.00
59435;BME280;45241;49.768;8.636;2023-02-03T03:37:27;101304.34;;;8.78;100.00
59435;BME280;45241;49.768;8.636;2023-02-03T03:42:40;101295.50;;;8.95;100.00
59435;BME280;45241;49.768;8.636;2023-02-03T03:45:36;101302.91;;;8.84;100.00
59435;BME280;45241;49.768;8.636;2023-02-03T03:50:59;101303.66;;;8.76;100.00
59435;BME280;45241;49.768;8.636;2023-02-03T03:53:30;101288.25;;;8.70;100.00
59435;BME280;45241;49.768;8.636;2023-02-03T03:55:59;101278.06;;;8.38;100.00
59435;BME280;45241;49.768;8.636;2023-02-03T03:58:29;101275.88;;;8.51;100.00
59435;BME280;45241;49.768;8.636;2023-02-03T04:00:57;101273.66;;;8.64;100.00
59435;BME280;45241;49.768;8.636;2023-02-03T04:03:29;101271.00;;;8.46;100.00
59435;BME280;45241;49.768;8.636;2023-02-03T04:05:56;101276.72;;;8.69;100.00
59435;BME280;45241;49.768;8.636;2023-02-03T04:08:21;101284.50;;;8.81;100.00
59435;BME280;45241;49.768;8.636;2023-02-03T04:10:47;101292.00;;;8.59;100.00
59435;BME280;45241;49.768;8.636;2023-02-03T04:13:12;101276.03;;;8.67;100.00
59435;BME280;45241;49.768;8.636;2023-02-03T04:15:40;101277.88;;;8.67;100.00
59435;BME280;45241;49.768;8.636;2023-02-03T04:18:05;101266.19;;;8.68;100.00
59435;BME280;45241;49.768;8.636;2023-02-03T04:20:31;101269.63;;;8.60;100.00
59435;BME280;45241;49.768;8.636;2023-02-03T04:22:57;101273.38;;;8.67;100.00
59435;BME280;45241;49.768;8.636;2023-02-03T04:25:23;101267.06;;;8.76;100.00
59435;BME280;45241;49.768;8.636;2023-02-03T04:27:49;101278.59;;;8.77;100.00
59435;BME280;45241;49.768;8.636;2023-02-03T04:30:15;101279.00;;;8.64;100.00
59435;BME280;45241;49.768;8.636;2023-02-03T04:32:43;101275.41;;;8.73;100.00
59435;BME280;45241;49.768;8.636;2023-02-03T04:35:08;101289.41;;;8.67;100.00
59435;BME280;45241;49.768;8.636;2023-02-03T04:37:33;101282.53;;;8.83;100.00
59435;BME280;45241;49.768;8.636;2023-02-03T04:39:59;101286.50;;;8.78;100.00
59435;BME280;45241;49.768;8.636;2023-02-03T04:42:25;101279.25;;;8.71;100.00
59435;BME280;45241;49.768;8.636;2023-02-03T04:44:50;101279.25;;;8.71;100.00
59435;BME280;45241;49.768;8.636;2023-02-03T04:47:16;101270.25;;;8.98;100.00
59435;BME280;45241;49.768;8.636;2023-02-03T04:49:42;101279.06;;;8.90;100.00
59435;BME280;45241;49.768;8.636;2023-02-03T04:52:08;101257.47;;;8.84;100.00
59435;BME280;45241;49.768;8.636;2023-02-03T04:54:34;101236.75;;;8.86;100.00
59435;BME280;45241;49.768;8.636;2023-02-03T04:56:59;101252.38;;;8.98;100.00
59435;BME280;45241;49.768;8.636;2023-02-03T04:59:25;101260.50;;;8.89;100.00
59435;BME280;45241;49.768;8.636;2023-02-03T05:01:51;101272.34;;;8.86;100.00
59435;BME280;45241;49.768;8.636;2023-02-03T05:04:16;101286.09;;;8.91;99.81
59435;BME280;45241;49.768;8.636;2023-02-03T05:06:41;101294.06;;;8.83;100.00
59435;BME280;45241;49.768;8.636;2023-02-03T05:09:07;101313.38;;;8.95;99.41
59435;BME280;45241;49.768;8.636;2023-02-03T05:11:32;101298.59;;;8.91;99.09
59435;BME280;45241;49.768;8.636;2023-02-03T05:13:58;101299.59;;;8.90;98.75
59435;BME280;45241;49.768;8.636;2023-02-03T05:16:23;101305.03;;;8.98;98.24
59435;BME280;45241;49.768;8.636;2023-02-03T05:18:48;101311.75;;;9.02;97.88
59435;BME280;45241;49.768;8.636;2023-02-03T05:21:14;101313.75;;;9.00;98.23
59435;BME280;45241;49.768;8.636;2023-02-03T05:23:39;101306.03;;;8.97;97.80
59435;BME280;45241;49.768;8.636;2023-02-03T05:26:04;101295.25;;;9.06;97.59
59435;BME280;45241;49.768;8.636;2023-02-03T05:28:30;101285.56;;;8.88;99.84
59435;BME280;45241;49.768;8.636;2023-02-03T05:30:59;101287.63;;;8.94;99.62
59435;BME280;45241;49.768;8.636;2023-02-03T05:33:24;101285.56;;;8.88;100.00
59435;BME280;45241;49.768;8.636;2023-02-03T05:35:50;101279.16;;;8.81;100.00
59435;BME280;45241;49.768;8.636;2023-02-03T05:38:15;101259.78;;;8.78;100.00
59435;BME280;45241;49.768;8.636;2023-02-03T05:40:41;101265.94;;;8.79;100.00
59435;BME280;45241;49.768;8.636;2023-02-03T05:43:26;101268.75;;;8.77;100.00
59435;BME280;45241;49.768;8.636;2023-02-03T05:45:51;101267.25;;;8.57;100.00
59435;BME280;45241;49.768;8.636;2023-02-03T05:48:16;101277.19;;;8.47;100.00
59435;BME280;45241;49.768;8.636;2023-02-03T05:50:42;101269.47;;;8.44;100.00
59435;BME280;45241;49.768;8.636;2023-02-03T05:53:07;101260.44;;;8.63;100.00
59435;BME280;45241;49.768;8.636;2023-02-03T05:55:33;101254.56;;;8.59;100.00
59435;BME280;45241;49.768;8.636;2023-02-03T05:57:58;101251.13;;;8.49;100.00
59435;BME280;45241;49.768;8.636;2023-02-03T06:00:25;101242.44;;;8.47;100.00
59435;BME280;45241;49.768;8.636;2023-02-03T06:02:51;101230.00;;;8.56;100.00
59435;BME280;45241;49.768;8.636;2023-02-03T06:05:17;101240.22;;;8.42;100.00
59435;BME280;45241;49.768;8.636;2023-02-03T06:07:42;101238.38;;;8.61;100.00
59435;BME280;45241;49.768;8.636;2023-02-03T06:10:08;101237.47;;;8.52;100.00
59435;BME280;45241;49.768;8.636;2023-02-03T06:12:33;101229.22;;;8.63;100.00
59435;BME280;45241;49.768;8.636;2023-02-03T06:14:58;101230.69;;;8.58;100.00
59435;BME280;45241;49.768;8.636;2023-02-03T06:17:24;101236.09;;;8.66;100.00
59435;BME280;45241;49.768;8.636;2023-02-03T06:19:49;101229.69;;;8.59;100.00
59435;BME280;45241;49.768;8.636;2023-02-03T06:22:14;101233.00;;;8.53;100.00
59435;BME280;45241;49.768;8.636;2023-02-03T06:24:39;101229.53;;;8.60;100.00
59435;BME280;45241;49.768;8.636;2023-02-03T06:27:05;101230.59;;;8.67;100.00
59435;BME280;45241;49.768;8.636;2023-02-03T06:29:30;101223.25;;;8.52;100.00
59435;BME280;45241;49.768;8.636;2023-02-03T06:31:55;101228.66;;;8.77;100.00
59435;BME280;45241;49.768;8.636;2023-02-03T06:34:21;101238.00;;;8.73;100.00
59435;BME280;45241;49.768;8.636;2023-02-03T06:36:46;101235.88;;;8.59;100.00
59435;BME280;45241;49.768;8.636;2023-02-03T06:39:13;101242.41;;;8.65;100.00
59435;BME280;45241;49.768;8.636;2023-02-03T06:41:38;101232.88;;;8.62;100.00
59435;BME280;45241;49.768;8.636;2023-02-03T06:44:03;101233.72;;;8.63;100.00
59435;BME280;45241;49.768;8.636;2023-02-03T06:46:29;101229.81;;;8.75;100.00
59435;BME280;45241;49.768;8.636;2023-02-03T06:48:54;101234.13;;;8.68;100.00
59435;BME280;45241;49.768;8.636;2023-02-03T06:51:20;101248.19;;;8.78;100.00
59435;BME280;45241;49.768;8.636;2023-02-03T06:53:46;101254.19;;;8.72;100.00
59435;BME280;45241;49.768;8.636;2023-02-03T06:56:11;101248.00;;;8.71;100.00
59435;BME280;45241;49.768;8.636;2023-02-03T06:58:37;101256.03;;;8.71;100.00
59435;BME280;45241;49.768;8.636;2023-02-03T07:01:02;101265.63;;;8.64;100.00
59435;BME280;45241;49.768;8.636;2023-02-03T07:03:27;101274.84;;;8.88;100.00
59435;BME280;45241;49.768;8.636;2023-02-03T07:05:53;101271.13;;;8.63;100.00
59435;BME280;45241;49.768;8.636;2023-02-03T07:08:18;101276.94;;;8.58;100.00
59435;BME280;45241;49.768;8.636;2023-02-03T07:10:43;101284.78;;;8.77;100.00
59435;BME280;45241;49.768;8.636;2023-02-03T07:13:08;101285.88;;;8.85;100.00
59435;BME280;45241;49.768;8.636;2023-02-03T07:15:34;101285.94;;;8.75;100.00
59435;BME280;45241;49.768;8.636;2023-02-03T07:17:59;101289.22;;;8.87;100.00
59435;BME280;45241;49.768;8.636;2023-02-03T07:20:25;101290.22;;;8.86;100.00
59435;BME280;45241;49.768;8.636;2023-02-03T07:22:56;101281.59;;;8.92;100.00
59435;BME280;45241;49.768;8.636;2023-02-03T07:25:22;101289.22;;;8.87;100.00
59435;BME280;45241;49.768;8.636;2023-02-03T07:27:47;101294.34;;;8.98;99.84
59435;BME280;45241;49.768;8.636;2023-02-03T07:30:13;101302.44;;;9.06;99.65
59435;BME280;45241;49.768;8.636;2023-02-03T07:32:38;101302.09;;;8.65;100.00
59435;BME280;45241;49.768;8.636;2023-02-03T07:35:04;101306.34;;;8.94;100.00
59435;BME280;45241;49.768;8.636;2023-02-03T07:37:29;101301.72;;;9.04;99.72
59435;BME280;45241;49.768;8.636;2023-02-03T07:39:55;101297.56;;;8.84;99.94
59435;BME280;45241;49.768;8.636;2023-02-03T07:42:20;101282.03;;;8.87;99.62
59435;BME280;45241;49.768;8.636;2023-02-03T07:44:45;101281.16;;;8.78;100.00
59435;BME280;45241;49.768;8.636;2023-02-03T07:47:11;101274.25;;;8.94;99.50
59435;BME280;45241;49.768;8.636;2023-02-03T07:49:36;101268.28;;;9.00;99.04
59435;BME280;45241;49.768;8.636;2023-02-03T07:52:01;101279.75;;;8.92;98.68
59435;BME280;45241;49.768;8.636;2023-02-03T07:54:27;101276.38;;;9.08;98.43
59435;BME280;45241;49.768;8.636;2023-02-03T07:56:52;101291.91;;;9.04;98.72
59435;BME280;45241;49.768;8.636;2023-02-03T07:59:18;101290.81;;;8.97;98.62
59435;BME280;45241;49.768;8.636;2023-02-03T08:01:43;101293.03;;;9.02;97.95
59435;BME280;45241;49.768;8.636;2023-02-03T08:04:09;101288.81;;;8.99;98.08
59435;BME280;45241;49.768;8.636;2023-02-03T08:06:36;101302.19;;;8.99;98.25
59435;BME280;45241;49.768;8.636;2023-02-03T08:09:02;101293.41;;;9.07;97.59
59435;BME280;45241;49.768;8.636;2023-02-03T08:11:27;101288.44;;;9.12;97.39
59435;BME280;45241;49.768;8.636;2023-02-03T08:13:52;101302.44;;;9.06;97.68
59435;BME280;45241;49.768;8.636;2023-02-03T08:16:18;101311.59;;;9.03;97.46
59435;BME280;45241;49.768;8.636;2023-02-03T08:18:43;101303.03;;;9.00;98.15
59435;BME280;45241;49.768;8.636;2023-02-03T08:21:08;101296.13;;;9.15;96.45
59435;BME280;45241;49.768;8.636;2023-02-03T08:23:34;101297.75;;;9.08;96.99
59435;BME280;45241;49.768;8.636;2023-02-03T08:25:59;101296.09;;;9.07;97.04
59435;BME280;45241;49.768;8.636;2023-02-03T08:28:24;101281.91;;;9.15;96.56
59435;BME280;45241;49.768;8.636;2023-02-03T08:30:50;101272.06;;;9.15;97.27
59435;BME280;45241;49.768;8.636;2023-02-03T08:33:15;101279.50;;;9.03;97.96
59435;BME280;45241;49.768;8.636;2023-02-03T08:35:45;101279.78;;;9.18;96.13
59435;BME280;45241;49.768;8.636;2023-02-03T08:38:11;101284.97;;;9.20;95.91
59435;BME280;45241;49.768;8.636;2023-02-03T08:40:37;101279.78;;;9.18;96.01
59435;BME280;45241;49.768;8.636;2023-02-03T08:43:02;101283.25;;;9.36;94.74
59435;BME280;45241;49.768;8.636;2023-02-03T08:45:27;101283.91;;;9.38;94.55
59435;BME280;45241;49.768;8.636;2023-02-03T08:47:53;101277.97;;;9.45;93.69
59435;BME280;45241;49.768;8.636;2023-02-03T08:50:18;101280.25;;;9.39;93.26
59435;BME280;45241;49.768;8.636;2023-02-03T08:52:43;101285.44;;;9.41;93.32
59435;BME280;45241;49.768;8.636;2023-02-03T08:55:09;101301.28;;;9.34;93.56
59435;BME280;45241;49.768;8.636;2023-02-03T08:57:35;101271.66;;;9.54;93.38
59435;BME280;45241;49.768;8.636;2023-02-03T09:00:03;101271.19;;;9.32;93.79
59435;BME280;45241;49.768;8.636;2023-02-03T09:02:29;101272.22;;;9.39;94.62
59435;BME280;45241;49.768;8.636;2023-02-03T09:04:54;101275.72;;;9.40;93.23
59435;BME280;45241;49.768;8.636;2023-02-03T09:07:20;101280.88;;;9.33;93.46
59435;BME280;45241;49.768;8.636;2023-02-03T09:09:45;101282.50;;;9.44;91.84
59435;BME280;45241;49.768;8.636;2023-02-03T09:12:10;101299.09;;;9.56;91.73
59435;BME280;45241;49.768;8.636;2023-02-03T09:14:37;101291.63;;;9.42;91.61
59435;BME280;45241;49.768;8.636;2023-02-03T09:17:03;101298.47;;;9.62;90.40
59435;BME280;45241;49.768;8.636;2023-02-03T09:19:29;101291.94;;;9.56;90.94
59435;BME280;45241;49.768;8.636;2023-02-03T09:21:55;101287.44;;;9.65;90.53
59435;BME280;45241;49.768;8.636;2023-02-03T09:24:21;101284.88;;;9.55;90.58
59435;BME280;45241;49.768;8.636;2023-02-03T09:26:47;101289.59;;;9.61;89.94
59435;BME280;45241;49.768;8.636;2023-02-03T09:29:12;101287.03;;;9.52;89.82
59435;BME280;45241;49.768;8.636;2023-02-03T09:31:37;101283.56;;;9.59;89.25
59435;BME280;45241;49.768;8.636;2023-02-03T09:34:03;101280.47;;;9.72;89.02
59435;BME280;45241;49.768;8.636;2023-02-03T09:36:28;101276.84;;;9.55;90.16
59435;BME280;45241;49.768;8.636;2023-02-03T09:38:53;101270.22;;;9.67;89.79
59435;BME280;45241;49.768;8.636;2023-02-03T09:41:42;101278.69;;;9.55;90.45
59435;BME280;45241;49.768;8.636;2023-02-03T09:46:47;101286.25;;;9.59;91.47
59435;BME280;45241;49.768;8.636;2023-02-03T09:49:23;101294.78;;;9.63;91.36
59435;BME280;45241;49.768;8.636;2023-02-03T09:51:52;101292.78;;;9.57;91.95
59435;BME280;45241;49.768;8.636;2023-02-03T09:54:22;101298.00;;;9.66;90.53
59435;BME280;45241;49.768;8.636;2023-02-03T09:56:52;101296.81;;;9.61;91.92
59435;BME280;45241;49.768;8.636;2023-02-03T09:59:20;101290.97;;;9.65;91.11
59435;BME280;45241;49.768;8.636;2023-02-03T10:02:19;101294.97;;;9.61;91.57
59435;BME280;45241;49.768;8.636;2023-02-03T10:04:58;101285.84;;;9.80;90.65
59435;BME280;45241;49.768;8.636;2023-02-03T10:07:33;101277.06;;;9.62;91.36
59435;BME280;45241;49.768;8.636;2023-02-03T10:13:28;101279.88;;;9.94;89.04
59435;BME280;45241;49.768;8.636;2023-02-03T10:16:31;101270.59;;;9.73;89.73
59435;BME280;45241;49.768;8.636;2023-02-03T10:19:02;101276.78;;;9.73;88.50
59435;BME280;45241;49.768;8.636;2023-02-03T10:21:38;101287.13;;;9.68;88.77
59435;BME280;45241;49.768;8.636;2023-02-03T10:24:10;101291.84;;;9.74;89.13
59435;BME280;45241;49.768;8.636;2023-02-03T10:26:38;101294.88;;;9.79;89.22
59435;BME280;45241;49.768;8.636;2023-02-03T10:29:30;101277.69;;;9.56;89.48
59435;BME280;45241;49.768;8.636;2023-02-03T10:31:59;101268.75;;;9.81;88.91
59435;BME280;45241;49.768;8.636;2023-02-03T10:34:24;101255.38;;;9.73;88.94
59435;BME280;45241;49.768;8.636;2023-02-03T10:36:56;101241.97;;;9.73;88.35
59435;BME280;45241;49.768;8.636;2023-02-03T10:39:44;101236.94;;;9.70;89.15
59435;BME280;45241;49.768;8.636;2023-02-03T10:42:11;101234.94;;;9.72;88.71
59435;BME280;45241;49.768;8.636;2023-02-03T10:44:41;101233.81;;;9.83;88.67
59435;BME280;45241;49.768;8.636;2023-02-03T10:49:42;101233.94;;;9.73;90.53
59435;BME280;45241;49.768;8.636;2023-02-03T10:52:24;101240.66;;;9.77;89.80
59435;BME280;45241;49.768;8.636;2023-02-03T10:54:49;101249.72;;;9.84;90.13
59435;BME280;45241;49.768;8.636;2023-02-03T10:57:15;101264.22;;;9.74;91.63
59435;BME280;45241;49.768;8.636;2023-02-03T10:59:42;101251.78;;;9.64;91.63
59435;BME280;45241;49.768;8.636;2023-02-03T11:02:26;101230.13;;;9.84;90.96
59435;BME280;45241;49.768;8.636;2023-02-03T11:07:42;101226.69;;;9.65;91.63
59435;BME280;45241;49.768;8.636;2023-02-03T11:10:37;101231.59;;;9.78;91.05
59435;BME280;45241;49.768;8.636;2023-02-03T11:13:16;101244.31;;;9.76;91.60
59435;BME280;45241;49.768;8.636;2023-02-03T11:16:09;101241.16;;;9.81;91.33
59435;BME280;45241;49.768;8.636;2023-02-03T11:18:50;101255.38;;;9.81;91.41
59435;BME280;45241;49.768;8.636;2023-02-03T11:21:30;101259.09;;;9.88;90.74
59435;BME280;45241;49.768;8.636;2023-02-03T11:24:03;101249.72;;;9.84;91.89
59435;BME280;45241;49.768;8.636;2023-02-03T11:26:35;101254.91;;;9.86;91.93
59435;BME280;45241;49.768;8.636;2023-02-03T11:29:02;101253.91;;;9.87;91.83
59435;BME280;45241;49.768;8.636;2023-02-03T11:31:33;101242.69;;;9.91;91.79
59435;BME280;45241;49.768;8.636;2023-02-03T11:34:02;101239.00;;;9.84;92.38
59435;BME280;45241;49.768;8.636;2023-02-03T11:36:29;101240.69;;;9.85;91.87
59435;BME280;45241;49.768;8.636;2023-02-03T11:41:48;101209.22;;;9.87;91.59
59435;BME280;45241;49.768;8.636;2023-02-03T11:44:20;101217.09;;;9.89;91.31
59435;BME280;45241;49.768;8.636;2023-02-03T11:46:49;101214.28;;;9.99;90.63
59435;BME280;45241;49.768;8.636;2023-02-03T11:49:37;101198.91;;;10.09;91.17
59435;BME280;45241;49.768;8.636;2023-02-03T11:52:27;101196.72;;;10.12;90.76
59435;BME280;45241;49.768;8.636;2023-02-03T12:05:35;101194.50;;;10.08;92.20
59435;BME280;45241;49.768;8.636;2023-02-03T12:19:01;101198.69;;;10.02;90.83
59435;BME280;45241;49.768;8.636;2023-02-03T12:21:44;101212.50;;;10.23;90.84
59435;BME280;45241;49.768;8.636;2023-02-03T12:27:09;101194.72;;;10.14;91.07
59435;BME280;45241;49.768;8.636;2023-02-03T12:29:42;101186.81;;;10.05;90.86
59435;BME280;45241;49.768;8.636;2023-02-03T12:32:35;101184.84;;;10.15;90.47
59435;BME280;45241;49.768;8.636;2023-02-03T12:35:16;101187.19;;;10.26;90.02
59435;BME280;45241;49.768;8.636;2023-02-03T12:40:41;101175.13;;;10.30;89.75
59435;BME280;45241;49.768;8.636;2023-02-03T12:45:48;101154.19;;;10.17;89.97
59435;BME280;45241;49.768;8.636;2023-02-03T12:48:20;101144.66;;;10.23;89.22
59435;BME280;45241;49.768;8.636;2023-02-03T12:50:49;101142.47;;;10.35;89.20
59435;BME280;45241;49.768;8.636;2023-02-03T12:53:35;101154.69;;;10.29;89.70
59435;BME280;45241;49.768;8.636;2023-02-03T12:56:08;101151.03;;;10.38;89.41
59435;BME280;45241;49.768;8.636;2023-02-03T12:58:39;101142.31;;;10.28;90.01
59435;BME280;45241;49.768;8.636;2023-02-03T13:01:17;101143.28;;;10.19;91.57
59435;BME280;45241;49.768;8.636;2023-02-03T13:08:56;101164.56;;;10.20;91.76
59435;BME280;45241;49.768;8.636;2023-02-03T13:11:44;101178.13;;;10.19;92.90
59435;BME280;45241;49.768;8.636;2023-02-03T13:14:21;101157.72;;;10.10;93.59
59435;BME280;45241;49.768;8.636;2023-02-03T13:16:58;101148.16;;;10.23;93.65
59435;BME280;45241;49.768;8.636;2023-02-03T13:19:45;101168.94;;;10.21;93.68
59435;BME280;45241;49.768;8.636;2023-02-03T13:22:14;101160.69;;;10.07;94.41
59435;BME280;45241;49.768;8.636;2023-02-03T13:24:52;101146.31;;;10.16;94.26
59435;BME280;45241;49.768;8.636;2023-02-03T13:30:18;101127.22;;;10.11;94.43
59435;BME280;45241;49.768;8.636;2023-02-03T13:33:02;101118.88;;;10.22;95.12
59435;BME280;45241;49.768;8.636;2023-02-03T13:38:20;101109.81;;;10.15;95.35
59435;BME280;45241;49.768;8.636;2023-02-03T13:41:02;101110.81;;;10.14;94.61
59435;BME280;45241;49.768;8.636;2023-02-03T13:43:43;101106.44;;;10.05;95.84
59435;BME280;45241;49.768;8.636;2023-02-03T13:46:23;101104.44;;;10.15;94.86
59435;BME280;45241;49.768;8.636;2023-02-03T13:48:50;101125.69;;;10.08;95.66
59435;BME280;45241;49.768;8.636;2023-02-03T13:51:21;101129.56;;;10.14;94.43
59435;BME280;45241;49.768;8.636;2023-02-03T13:53:50;101120.19;;;10.18;94.14
59435;BME280;45241;49.768;8.636;2023-02-03T13:56:23;101129.22;;;10.17;94.20
59435;BME280;45241;49.768;8.636;2023-02-03T14:01:41;101117.66;;;10.08;94.69
59435;BME280;45241;49.768;8.636;2023-02-03T14:04:07;101131.06;;;10.08;95.47
59435;BME280;45241;49.768;8.636;2023-02-03T14:06:55;101130.56;;;10.21;94.61
59435;BME280;45241;49.768;8.636;2023-02-03T14:12:21;101123.03;;;10.08;93.99
59435;BME280;45241;49.768;8.636;2023-02-03T14:19:58;101127.06;;;10.37;93.88
59435;BME280;45241;49.768;8.636;2023-02-03T14:22:23;101112.16;;;10.26;93.91
59435;BME280;45241;49.768;8.636;2023-02-03T14:24:49;101125.03;;;10.31;94.02
59435;BME280;45241;49.768;8.636;2023-02-03T14:27:20;101117.69;;;10.24;94.76
59435;BME280;45241;49.768;8.636;2023-02-03T14:30:12;101138.13;;;10.09;94.37
59435;BME280;45241;49.768;8.636;2023-02-03T14:32:50;101126.03;;;10.05;95.62
59435;BME280;45241;49.768;8.636;2023-02-03T14:35:22;101125.06;;;10.22;95.17
59435;BME280;45241;49.768;8.636;2023-02-03T14:37:54;101125.19;;;10.21;95.22
59435;BME280;45241;49.768;8.636;2023-02-03T14:46:04;101125.22;;;10.13;96.42